createdAt,value
2022-10-06T00:00:44.622Z,79.85
2022-10-06T00:01:44.641Z,79.94
2022-10-06T00:02:44.633Z,79.74
2022-10-06T00:03:44.560Z,79.50
2022-10-06T00:04:44.571Z,79.91
2022-10-06T00:05:44.552Z,79.91
2022-10-06T00:06:44.537Z,79.50
2022-10-06T00:07:44.522Z,79.50
2022-10-06T00:08:44.513Z,79.91
2022-10-06T00:09:44.494Z,79.91
2022-10-06T00:10:44.486Z,80.05
2022-10-06T00:11:44.463Z,80.76
2022-10-06T00:12:44.472Z,80.76
2022-10-06T00:13:44.433Z,80.45
2022-10-06T00:14:44.423Z,80.76
2022-10-06T00:15:44.455Z,81.91
2022-10-06T00:16:44.412Z,81.10
2022-10-06T00:17:44.405Z,81.40
2022-10-06T00:18:44.376Z,81.40
2022-10-06T00:19:44.375Z,81.60
2022-10-06T00:20:44.365Z,81.50
2022-10-06T00:21:44.336Z,81.81
2022-10-06T00:22:44.335Z,82.52
2022-10-06T00:23:45.302Z,82.42
2022-10-06T00:24:44.294Z,82.56
2022-10-06T00:25:44.276Z,82.11
2022-10-06T00:26:44.295Z,81.71
2022-10-06T00:27:44.258Z,81.71
2022-10-06T00:28:44.370Z,81.50
2022-10-06T00:29:44.236Z,81.40
2022-10-06T00:30:44.266Z,81.71
2022-10-06T00:31:44.221Z,81.50
2022-10-06T00:32:44.206Z,81.81
2022-10-06T00:33:44.180Z,81.91
2022-10-06T00:34:44.158Z,81.60
2022-10-06T00:35:44.139Z,81.81
2022-10-06T00:36:44.147Z,82.11
2022-10-06T00:37:44.118Z,81.60
2022-10-06T00:38:44.118Z,81.81
2022-10-06T00:39:44.100Z,81.71
2022-10-06T00:40:44.095Z,81.81
2022-10-06T00:41:44.088Z,82.01
2022-10-06T00:42:44.070Z,82.52
2022-10-06T00:43:44.041Z,82.42
2022-10-06T00:44:44.029Z,82.25
2022-10-06T00:45:44.031Z,82.56
2022-10-06T00:46:44.135Z,82.66
2022-10-06T00:47:43.998Z,82.66
2022-10-06T00:48:43.989Z,83.26
2022-10-06T00:49:43.977Z,83.17
2022-10-06T00:50:44.973Z,83.17
2022-10-06T00:51:43.931Z,83.40
2022-10-06T00:52:43.933Z,83.51
2022-10-06T00:53:43.930Z,83.31
2022-10-06T00:54:43.901Z,83.61
2022-10-06T00:55:43.939Z,83.51
2022-10-06T00:56:43.881Z,83.71
2022-10-06T00:57:43.896Z,83.71
2022-10-06T00:58:43.853Z,83.61
2022-10-06T00:59:43.851Z,83.61
2022-10-06T01:00:43.848Z,84.01
2022-10-06T01:01:43.904Z,83.61
2022-10-06T01:02:43.853Z,84.52
2022-10-06T01:03:43.795Z,84.97
2022-10-06T01:04:43.783Z,85.27
2022-10-06T01:05:43.763Z,84.97
2022-10-06T01:06:43.745Z,85.27
2022-10-06T01:07:43.740Z,85.78
2022-10-06T01:08:43.725Z,85.68
2022-10-06T01:09:43.807Z,85.38
2022-10-06T01:10:43.715Z,85.38
2022-10-06T01:11:43.707Z,85.47
2022-10-06T01:12:43.676Z,85.98
2022-10-06T01:13:43.726Z,86.19
2022-10-06T01:14:43.647Z,86.13
2022-10-06T01:15:43.742Z,86.02
2022-10-06T01:16:43.649Z,85.82
2022-10-06T01:17:43.645Z,86.13
2022-10-06T01:18:43.646Z,86.19
2022-10-06T01:19:43.658Z,86.29
2022-10-06T01:20:43.576Z,85.98
2022-10-06T01:21:43.548Z,86.39
2022-10-06T01:22:43.550Z,85.47
2022-10-06T01:23:43.529Z,85.47
2022-10-06T01:24:43.507Z,86.08
2022-10-06T01:25:43.520Z,86.39
2022-10-06T01:26:43.500Z,86.08
2022-10-06T01:27:43.460Z,85.88
2022-10-06T01:28:43.512Z,85.82
2022-10-06T01:29:43.438Z,85.92
2022-10-06T01:30:43.520Z,85.38
2022-10-06T01:31:43.409Z,85.27
2022-10-06T01:32:43.399Z,85.78
2022-10-06T01:33:43.389Z,85.68
2022-10-06T01:34:43.391Z,85.07
2022-10-06T01:35:43.349Z,84.97
2022-10-06T01:36:43.370Z,85.17
2022-10-06T01:37:43.348Z,85.07
2022-10-06T01:38:43.333Z,84.97
2022-10-06T01:39:43.324Z,84.97
2022-10-06T01:40:43.293Z,85.47
2022-10-06T01:41:43.283Z,84.97
2022-10-06T01:42:43.284Z,85.07
2022-10-06T01:43:43.247Z,84.66
2022-10-06T01:44:43.239Z,84.63
2022-10-06T01:45:43.222Z,85.13
2022-10-06T01:46:43.276Z,84.93
2022-10-06T01:47:43.206Z,85.03
2022-10-06T01:48:43.206Z,84.77
2022-10-06T01:49:43.164Z,84.46
2022-10-06T01:50:43.154Z,84.46
2022-10-06T01:51:43.164Z,84.26
2022-10-06T01:52:43.155Z,83.95
2022-10-06T01:53:43.124Z,84.16
2022-10-06T01:54:43.113Z,84.87
2022-10-06T01:55:43.096Z,85.01
2022-10-06T01:56:43.106Z,85.35
2022-10-06T01:57:43.060Z,85.05
2022-10-06T01:58:43.088Z,85.76
2022-10-06T01:59:43.046Z,86.27
2022-10-06T02:00:43.030Z,86.47
2022-10-06T02:01:43.080Z,86.27
2022-10-06T02:02:43.021Z,86.57
2022-10-06T02:03:42.985Z,86.68
2022-10-06T02:04:42.981Z,86.02
2022-10-06T02:05:42.971Z,85.92
2022-10-06T02:06:43.017Z,86.02
2022-10-06T02:07:42.930Z,84.77
2022-10-06T02:08:42.928Z,84.66
2022-10-06T02:09:42.918Z,84.56
2022-10-06T02:10:42.925Z,84.05
2022-10-06T02:11:42.890Z,84.32
2022-10-06T02:12:42.877Z,84.12
2022-10-06T02:13:42.853Z,83.71
2022-10-06T02:14:42.850Z,84.52
2022-10-06T02:15:42.851Z,83.51
2022-10-06T02:16:42.829Z,83.31
2022-10-06T02:17:42.810Z,83.10
2022-10-06T02:18:42.790Z,83.20
2022-10-06T02:19:42.770Z,83.10
2022-10-06T02:20:42.761Z,83.04
2022-10-06T02:21:42.750Z,82.64
2022-10-06T02:22:42.733Z,82.67
2022-10-06T02:23:42.762Z,83.38
2022-10-06T02:24:42.711Z,83.89
2022-10-06T02:25:42.691Z,83.83
2022-10-06T02:26:42.693Z,83.97
2022-10-06T02:27:42.683Z,83.67
2022-10-06T02:28:42.725Z,84.01
2022-10-06T02:29:42.646Z,84.42
2022-10-06T02:30:42.626Z,84.76
2022-10-06T02:31:42.635Z,85.41
2022-10-06T02:32:42.612Z,86.43
2022-10-06T02:33:42.584Z,87.18
2022-10-06T02:34:42.564Z,87.90
2022-10-06T02:35:42.565Z,88.61
2022-10-06T02:36:42.740Z,88.51
2022-10-06T02:37:42.674Z,88.67
2022-10-06T02:38:42.593Z,89.07
2022-10-06T02:39:42.503Z,88.98
2022-10-06T02:40:42.495Z,88.83
2022-10-06T02:41:42.481Z,88.39
2022-10-06T02:42:42.471Z,87.67
2022-10-06T02:43:42.455Z,87.06
2022-10-06T02:44:42.438Z,86.25
2022-10-06T02:45:42.447Z,86.86
2022-10-06T02:46:42.444Z,86.76
2022-10-06T02:47:42.407Z,86.90
2022-10-06T02:48:42.387Z,87.30
2022-10-06T02:49:42.366Z,87.00
2022-10-06T02:50:42.366Z,87.30
2022-10-06T02:51:42.362Z,87.61
2022-10-06T02:52:42.327Z,88.16
2022-10-06T02:53:42.320Z,88.06
2022-10-06T02:54:42.318Z,88.57
2022-10-06T02:55:42.308Z,87.96
2022-10-06T02:56:42.289Z,87.75
2022-10-06T02:57:42.287Z,88.06
2022-10-06T02:58:42.247Z,88.46
2022-10-06T02:59:42.239Z,89.48
2022-10-06T03:00:42.232Z,89.44
2022-10-06T03:01:42.292Z,89.34
2022-10-06T03:02:42.303Z,88.69
2022-10-06T03:03:42.189Z,88.28
2022-10-06T03:04:42.186Z,88.34
2022-10-06T03:05:42.169Z,88.13
2022-10-06T03:06:42.144Z,87.53
2022-10-06T03:07:42.153Z,87.02
2022-10-06T03:08:42.112Z,86.88
2022-10-06T03:09:42.117Z,86.37
2022-10-06T03:10:42.101Z,86.16
2022-10-06T03:11:42.100Z,86.27
2022-10-06T03:12:42.073Z,85.92
2022-10-06T03:13:42.051Z,85.41
2022-10-06T03:14:42.031Z,85.41
2022-10-06T03:15:42.090Z,85.11
2022-10-06T03:16:42.015Z,85.01
2022-10-06T03:17:42.004Z,84.91
2022-10-06T03:18:41.983Z,85.17
2022-10-06T03:19:41.991Z,85.47
2022-10-06T03:20:41.983Z,85.62
2022-10-06T03:21:41.943Z,85.52
2022-10-06T03:22:41.940Z,85.72
2022-10-06T03:23:41.931Z,86.02
2022-10-06T03:24:41.902Z,85.72
2022-10-06T03:25:41.904Z,85.62
2022-10-06T03:26:41.893Z,85.62
2022-10-06T03:27:41.873Z,85.62
2022-10-06T03:28:41.873Z,85.92
2022-10-06T03:29:41.844Z,85.92
2022-10-06T03:30:41.861Z,85.92
2022-10-06T03:31:41.843Z,86.22
2022-10-06T03:32:41.828Z,85.92
2022-10-06T03:33:41.805Z,86.13
2022-10-06T03:34:41.772Z,86.16
2022-10-06T03:35:41.783Z,85.72
2022-10-06T03:36:41.754Z,85.72
2022-10-06T03:37:41.755Z,85.62
2022-10-06T03:38:41.734Z,85.62
2022-10-06T03:39:41.715Z,85.92
2022-10-06T03:40:41.729Z,85.52
2022-10-06T03:41:41.687Z,85.41
2022-10-06T03:42:41.664Z,84.87
2022-10-06T03:43:41.666Z,84.77
2022-10-06T03:44:41.657Z,85.07
2022-10-06T03:45:41.655Z,84.77
2022-10-06T03:46:49.205Z,84.36
2022-10-06T03:47:41.628Z,84.26
2022-10-06T03:48:41.597Z,84.12
2022-10-06T03:49:41.636Z,84.32
2022-10-06T04:03:13.517Z,84.42
2022-10-06T04:04:13.501Z,84.42
2022-10-06T04:05:13.487Z,84.42
2022-10-06T04:06:13.456Z,84.93
2022-10-06T04:07:13.457Z,85.03
2022-10-06T04:08:13.437Z,85.44
2022-10-06T04:09:15.618Z,84.32
2022-10-06T04:10:13.397Z,84.42
2022-10-06T04:11:13.408Z,84.52
2022-10-06T04:12:13.409Z,85.24
2022-10-06T04:13:13.383Z,84.83
2022-10-06T04:14:13.348Z,85.44
2022-10-06T04:15:13.347Z,85.68
2022-10-06T04:16:13.393Z,85.17
2022-10-06T04:17:13.330Z,85.58
2022-10-06T04:18:13.298Z,86.19
2022-10-06T04:19:13.288Z,85.68
2022-10-06T04:20:13.289Z,85.47
2022-10-06T04:21:13.278Z,85.47
2022-10-06T04:22:13.567Z,85.47
2022-10-06T04:23:13.239Z,85.62
2022-10-06T04:24:13.221Z,85.92
2022-10-06T04:25:13.221Z,85.92
2022-10-06T04:26:13.199Z,86.02
2022-10-06T04:27:13.200Z,86.02
2022-10-06T04:28:13.213Z,86.74
2022-10-06T04:29:13.232Z,87.04
2022-10-06T04:30:13.153Z,86.74
2022-10-06T04:31:13.218Z,86.53
2022-10-06T04:32:13.122Z,86.33
2022-10-06T04:33:13.102Z,86.33
2022-10-06T04:34:13.090Z,86.53
2022-10-06T04:35:13.089Z,87.04
2022-10-06T04:36:13.080Z,87.45
2022-10-06T04:37:13.062Z,86.88
2022-10-06T04:38:13.054Z,86.68
2022-10-06T04:39:13.031Z,86.77
2022-10-06T04:40:13.022Z,86.53
2022-10-06T04:41:13.033Z,86.68
2022-10-06T04:42:13.000Z,86.74
2022-10-06T04:43:12.994Z,86.74
2022-10-06T04:44:12.975Z,86.77
2022-10-06T04:45:12.975Z,86.98
2022-10-06T04:46:40.898Z,86.83
2022-10-06T04:47:14.103Z,86.98
2022-10-06T04:48:12.929Z,87.04
2022-10-06T04:49:19.005Z,87.24
2022-10-06T04:50:13.895Z,87.85
2022-10-06T04:51:12.884Z,87.85
2022-10-06T04:52:12.874Z,87.85
2022-10-06T04:53:12.856Z,86.94
2022-10-06T04:54:12.851Z,86.94
2022-10-06T04:55:12.842Z,86.53
2022-10-06T04:56:12.815Z,86.83
2022-10-06T04:57:12.787Z,87.14
2022-10-06T04:58:12.788Z,87.08
2022-10-06T04:59:12.794Z,87.49
2022-10-06T05:00:15.105Z,87.59
2022-10-06T05:01:12.778Z,87.69
2022-10-06T05:02:12.818Z,87.59
2022-10-06T05:03:12.724Z,87.38
2022-10-06T05:04:12.727Z,87.69
2022-10-06T05:05:12.676Z,88.16
2022-10-06T05:06:12.687Z,87.89
2022-10-06T05:08:22.896Z,88.10
2022-10-06T05:09:23.947Z,88.40
2022-10-06T05:10:22.934Z,88.71
2022-10-06T05:11:26.017Z,87.99
2022-10-06T05:12:22.845Z,87.69
2022-10-06T05:13:43.924Z,87.99
2022-10-06T05:14:22.892Z,87.75
2022-10-06T05:15:22.876Z,87.85
2022-10-06T05:16:22.951Z,88.20
2022-10-06T05:17:22.897Z,88.40
2022-10-06T05:18:22.794Z,88.20
2022-10-06T05:19:22.797Z,88.30
2022-10-06T05:20:22.819Z,88.20
2022-10-06T05:21:22.860Z,88.30
2022-10-06T05:22:22.825Z,88.91
2022-10-06T05:23:22.730Z,89.01
2022-10-06T05:25:32.519Z,88.71
2022-10-06T05:26:33.424Z,89.42
2022-10-06T05:27:32.475Z,89.72
2022-10-06T05:28:32.803Z,88.60
2022-10-06T05:29:34.466Z,89.22
2022-10-06T05:30:32.395Z,88.10
2022-10-06T05:31:32.478Z,87.95
2022-10-06T05:32:35.901Z,88.26
2022-10-06T05:33:32.474Z,87.65
2022-10-06T05:34:32.327Z,87.65
2022-10-06T05:35:33.364Z,88.06
2022-10-06T05:36:32.387Z,88.16
2022-10-06T05:37:33.267Z,87.30
2022-10-06T05:38:32.772Z,86.74
2022-10-06T05:39:32.358Z,86.69
2022-10-06T05:40:33.285Z,87.14
2022-10-06T05:41:32.309Z,87.10
2022-10-06T05:42:32.284Z,87.14
2022-10-06T05:43:55.260Z,87.14
2022-10-06T05:44:32.193Z,87.24
2022-10-06T05:45:32.256Z,87.45
2022-10-06T05:46:32.237Z,87.65
2022-10-06T05:47:32.212Z,87.95
2022-10-06T05:48:33.149Z,88.06
2022-10-06T05:49:33.140Z,88.56
2022-10-06T05:50:32.097Z,88.16
2022-10-06T05:51:32.177Z,88.10
2022-10-06T05:52:32.071Z,88.30
2022-10-06T05:53:33.071Z,88.50
2022-10-06T05:54:32.052Z,87.69
2022-10-06T05:55:32.062Z,88.26
2022-10-06T05:56:32.109Z,87.65
2022-10-06T05:57:32.081Z,87.45
2022-10-06T05:58:32.340Z,87.14
2022-10-06T05:59:31.992Z,87.04
2022-10-06T06:00:31.976Z,86.94
2022-10-06T06:01:32.063Z,86.83
2022-10-06T06:02:32.089Z,86.83
2022-10-06T06:03:32.012Z,87.45
2022-10-06T06:04:32.022Z,87.45
2022-10-06T06:05:31.932Z,87.24
2022-10-06T06:06:31.963Z,86.94
2022-10-06T06:07:31.893Z,87.14
2022-10-06T06:08:32.399Z,87.55
2022-10-06T06:09:31.956Z,87.45
2022-10-06T06:10:31.832Z,87.45
2022-10-06T06:11:33.855Z,87.24
2022-10-06T06:12:31.805Z,86.94
2022-10-06T06:13:31.883Z,87.04
2022-10-06T06:14:31.775Z,86.83
2022-10-06T06:15:31.790Z,86.43
2022-10-06T06:16:31.812Z,86.83
2022-10-06T06:17:31.768Z,86.49
2022-10-06T06:18:33.142Z,86.80
2022-10-06T06:19:31.745Z,86.90
2022-10-06T06:20:31.708Z,86.80
2022-10-06T06:21:31.724Z,87.00
2022-10-06T06:22:31.697Z,87.30
2022-10-06T06:23:31.737Z,87.10
2022-10-06T06:24:31.757Z,86.69
2022-10-06T06:25:32.674Z,86.69
2022-10-06T06:26:31.658Z,86.49
2022-10-06T06:27:31.646Z,86.69
2022-10-06T06:28:34.227Z,86.80
2022-10-06T06:29:31.690Z,86.69
2022-10-06T06:30:31.693Z,87.00
2022-10-06T06:31:31.646Z,86.80
2022-10-06T06:32:31.569Z,87.10
2022-10-06T06:33:31.612Z,86.80
2022-10-06T06:34:32.628Z,86.69
2022-10-06T06:35:32.547Z,86.59
2022-10-06T06:36:31.530Z,86.49
2022-10-06T06:37:31.509Z,86.65
2022-10-06T06:38:32.171Z,86.96
2022-10-06T06:39:31.550Z,87.06
2022-10-06T06:40:31.561Z,87.37
2022-10-06T06:41:32.489Z,88.07
2022-10-06T06:42:31.439Z,87.51
2022-10-06T06:43:32.116Z,87.61
2022-10-06T06:44:31.491Z,87.51
2022-10-06T06:45:31.489Z,87.71
2022-10-06T06:46:31.520Z,87.61
2022-10-06T06:47:31.440Z,87.71
2022-10-06T06:48:31.925Z,87.57
2022-10-06T06:49:31.375Z,87.77
2022-10-06T06:50:31.426Z,87.77
2022-10-06T06:51:31.330Z,87.57
2022-10-06T06:52:31.310Z,87.67
2022-10-06T06:53:31.342Z,87.87
2022-10-06T06:54:31.270Z,87.77
2022-10-06T06:55:31.353Z,87.87
2022-10-06T06:56:31.361Z,87.87
2022-10-06T06:57:31.272Z,87.87
2022-10-06T06:58:31.720Z,87.87
2022-10-06T06:59:31.223Z,88.18
2022-10-06T07:00:35.918Z,88.07
2022-10-06T07:01:32.292Z,87.87
2022-10-06T07:02:31.237Z,88.07
2022-10-06T07:03:56.062Z,88.18
2022-10-06T07:04:32.154Z,87.87
2022-10-06T07:05:33.192Z,87.97
2022-10-06T07:06:32.149Z,88.07
2022-10-06T07:07:31.161Z,88.18
2022-10-06T07:08:31.743Z,88.38
2022-10-06T07:09:31.133Z,88.38
2022-10-06T07:10:31.164Z,88.38
2022-10-06T07:11:31.085Z,88.18
2022-10-06T07:12:31.094Z,88.38
2022-10-06T07:13:31.074Z,88.64
2022-10-06T07:14:31.079Z,88.64
2022-10-06T07:15:31.074Z,88.75
2022-10-06T07:16:30.995Z,88.75
2022-10-06T07:17:30.998Z,88.75
2022-10-06T07:18:31.607Z,88.84
2022-10-06T07:19:30.975Z,89.04
2022-10-06T07:20:30.945Z,89.35
2022-10-06T07:21:31.028Z,89.55
2022-10-06T07:22:30.937Z,89.76
2022-10-06T07:23:30.917Z,89.86
2022-10-06T07:24:30.936Z,90.06
2022-10-06T07:25:30.955Z,90.16
2022-10-06T07:26:30.948Z,90.26
2022-10-06T07:27:30.877Z,90.36
2022-10-06T07:28:30.934Z,90.47
2022-10-06T07:29:30.882Z,90.47
2022-10-06T07:30:30.895Z,90.42
2022-10-06T07:31:30.942Z,90.32
2022-10-06T07:32:30.925Z,90.42
2022-10-06T07:33:30.818Z,90.42
2022-10-06T07:34:53.087Z,90.22
2022-10-06T07:35:30.808Z,90.32
2022-10-06T07:36:30.817Z,90.32
2022-10-06T07:37:30.758Z,90.42
2022-10-06T07:38:30.731Z,90.32
2022-10-06T07:39:30.737Z,90.42
2022-10-06T07:40:30.750Z,90.73
2022-10-06T07:41:30.751Z,90.73
2022-10-06T07:42:30.818Z,90.93
2022-10-06T07:43:30.759Z,90.83
2022-10-06T07:44:30.669Z,90.73
2022-10-06T07:45:30.643Z,90.62
2022-10-06T07:46:30.707Z,90.73
2022-10-06T07:47:31.662Z,90.53
2022-10-06T07:48:30.601Z,90.53
2022-10-06T07:49:30.591Z,90.73
2022-10-06T07:50:30.612Z,90.62
2022-10-06T07:51:30.553Z,90.93
2022-10-06T07:52:32.619Z,90.83
2022-10-06T07:53:30.561Z,90.93
2022-10-06T07:54:30.523Z,91.24
2022-10-06T07:55:30.541Z,91.13
2022-10-06T07:56:30.495Z,91.13
2022-10-06T07:57:54.762Z,91.13
2022-10-06T07:58:31.492Z,91.13
2022-10-06T07:59:30.471Z,91.13
2022-10-06T08:00:30.481Z,90.62
2022-10-06T08:01:30.583Z,90.62
2022-10-06T08:02:34.670Z,90.83
2022-10-06T08:03:33.494Z,90.93
2022-10-06T08:04:31.423Z,90.83
2022-10-06T08:05:30.613Z,90.32
2022-10-06T08:06:30.355Z,89.72
2022-10-06T08:07:30.424Z,89.51
2022-10-06T08:08:30.355Z,88.29
2022-10-06T08:09:30.313Z,87.69
2022-10-06T08:10:30.315Z,87.99
2022-10-06T08:11:30.344Z,87.99
2022-10-06T08:12:30.345Z,87.99
2022-10-06T08:13:30.389Z,87.89
2022-10-06T08:14:30.365Z,88.09
2022-10-06T08:15:30.226Z,87.79
2022-10-06T08:16:30.549Z,87.08
2022-10-06T08:17:30.219Z,87.08
2022-10-06T08:18:47.052Z,87.59
2022-10-06T08:19:31.218Z,87.18
2022-10-06T08:20:30.206Z,87.59
2022-10-06T08:21:30.197Z,87.08
2022-10-06T08:22:30.224Z,86.82
2022-10-06T08:23:30.155Z,87.02
2022-10-06T08:24:33.890Z,86.82
2022-10-06T08:25:32.199Z,87.08
2022-10-06T08:26:30.150Z,86.57
2022-10-06T08:27:30.137Z,86.27
2022-10-06T08:28:30.247Z,85.90
2022-10-06T08:29:30.419Z,85.90
2022-10-06T08:30:30.113Z,85.60
2022-10-06T08:31:30.101Z,85.19
2022-10-06T08:32:30.119Z,84.99
2022-10-06T08:33:30.079Z,84.63
2022-10-06T08:34:30.129Z,84.63
2022-10-06T08:35:30.162Z,83.91
2022-10-06T08:36:32.598Z,83.71
2022-10-06T08:37:30.020Z,83.00
2022-10-06T08:38:30.170Z,83.81
2022-10-06T08:39:29.940Z,83.40
2022-10-06T08:40:29.902Z,83.40
2022-10-06T08:41:29.891Z,83.40
2022-10-06T08:42:29.996Z,83.81
2022-10-06T08:43:30.900Z,83.91
2022-10-06T08:44:29.871Z,83.81
2022-10-06T08:45:29.863Z,83.61
2022-10-06T08:46:29.879Z,83.67
2022-10-06T08:47:29.814Z,83.31
2022-10-06T08:48:30.864Z,83.31
2022-10-06T08:49:30.053Z,83.71
2022-10-06T08:50:29.844Z,83.61
2022-10-06T08:51:29.762Z,83.40
2022-10-06T08:52:29.753Z,83.40
2022-10-06T08:53:30.854Z,83.61
2022-10-06T08:54:29.748Z,83.40
2022-10-06T08:55:29.825Z,82.90
2022-10-06T08:56:29.727Z,83.20
2022-10-06T08:57:29.709Z,83.40
2022-10-06T08:58:29.800Z,83.40
2022-10-06T08:59:30.675Z,83.10
2022-10-06T09:00:29.664Z,82.59
2022-10-06T09:01:29.906Z,81.88
2022-10-06T09:02:29.776Z,82.70
2022-10-06T09:03:29.630Z,82.90
2022-10-06T09:04:29.635Z,83.06
2022-10-06T09:05:29.669Z,82.86
2022-10-06T09:06:29.568Z,82.35
2022-10-06T09:07:29.576Z,82.66
2022-10-06T09:08:29.677Z,82.45
2022-10-06T09:09:29.548Z,81.85
2022-10-06T09:10:29.548Z,81.44
2022-10-06T09:11:29.536Z,82.05
2022-10-06T09:12:29.488Z,82.01
2022-10-06T09:13:29.510Z,82.01
2022-10-06T09:14:29.539Z,81.24
2022-10-06T09:15:29.506Z,81.71
2022-10-06T09:16:29.597Z,82.01
2022-10-06T09:17:29.531Z,82.31
2022-10-06T09:18:49.294Z,82.42
2022-10-06T09:19:33.632Z,81.71
2022-10-06T09:20:29.505Z,81.16
2022-10-06T09:21:29.381Z,80.96
2022-10-06T09:22:29.421Z,80.25
2022-10-06T09:23:31.531Z,80.65
2022-10-06T09:24:29.403Z,79.85
2022-10-06T09:25:29.345Z,79.44
2022-10-06T09:26:29.390Z,79.30
2022-10-06T09:27:31.387Z,79.40
2022-10-06T09:28:29.369Z,78.08
2022-10-06T09:29:29.364Z,78.89
2022-10-06T09:30:29.276Z,78.86
2022-10-06T09:31:29.319Z,78.11
2022-10-06T09:32:29.247Z,77.97
2022-10-06T09:33:29.214Z,77.23
2022-10-06T09:34:29.253Z,76.42
2022-10-06T09:35:29.296Z,76.08
2022-10-06T09:36:29.224Z,76.15
2022-10-06T09:37:29.230Z,74.60
2022-10-06T09:38:29.173Z,74.19
2022-10-06T09:39:29.154Z,72.95
2022-10-06T09:40:29.256Z,71.60
2022-10-06T09:41:29.106Z,71.44
2022-10-06T09:42:29.147Z,69.95
2022-10-06T09:43:29.156Z,70.06
2022-10-06T09:44:29.126Z,70.32
2022-10-06T09:45:29.175Z,69.62
2022-10-06T09:46:29.047Z,69.82
2022-10-06T09:47:29.048Z,69.62
2022-10-06T10:03:18.493Z,68.28
2022-10-06T10:04:21.545Z,66.60
2022-10-06T10:05:18.376Z,68.38
2022-10-06T10:06:18.337Z,69.49
2022-10-06T10:07:18.385Z,69.21
2022-10-06T10:08:18.377Z,69.92
2022-10-06T10:09:21.799Z,70.50
2022-10-06T10:10:18.317Z,69.52
2022-10-06T10:11:18.257Z,69.09
2022-10-06T10:12:18.308Z,67.74
2022-10-06T10:13:18.299Z,66.51
2022-10-06T10:14:18.237Z,65.80
2022-10-06T10:15:18.235Z,65.37
2022-10-06T10:16:18.258Z,65.94
2022-10-06T10:17:18.227Z,64.51
2022-10-06T10:18:18.239Z,65.51
2022-10-06T10:19:18.253Z,64.04
2022-10-06T10:20:21.460Z,64.58
2022-10-06T10:21:18.139Z,64.45
2022-10-06T10:22:18.336Z,62.92
2022-10-06T10:23:18.181Z,62.98
2022-10-06T10:24:18.099Z,61.55
2022-10-06T10:25:18.100Z,60.05
2022-10-06T10:26:20.156Z,60.65
2022-10-06T10:27:18.069Z,61.18
2022-10-06T10:28:18.130Z,61.94
2022-10-06T10:29:18.101Z,63.50
2022-10-06T10:30:18.151Z,64.61
2022-10-06T10:31:18.171Z,66.61
2022-10-06T10:32:18.003Z,61.97
2022-10-06T10:33:18.043Z,61.41
2022-10-06T10:34:24.495Z,60.32
2022-10-06T10:35:19.055Z,58.37
2022-10-06T10:36:17.945Z,56.91
2022-10-06T10:37:17.943Z,57.39
2022-10-06T10:38:18.009Z,55.86
2022-10-06T10:39:17.903Z,56.56
2022-10-06T10:40:17.902Z,56.66
2022-10-06T10:41:17.882Z,56.48
2022-10-06T10:42:17.884Z,57.46
2022-10-06T10:43:17.885Z,56.11
2022-10-06T10:44:17.845Z,58.05
2022-10-06T10:45:17.935Z,60.66
2022-10-06T10:46:17.951Z,63.53
2022-10-06T10:47:17.815Z,63.64
2022-10-06T10:48:17.807Z,63.70
2022-10-06T10:49:17.776Z,63.43
2022-10-06T10:50:18.786Z,62.73
2022-10-06T10:51:17.844Z,64.11
2022-10-06T10:52:17.856Z,62.87
2022-10-06T10:54:17.867Z,58.73
2022-10-06T10:55:18.727Z,56.88
2022-10-06T10:56:18.706Z,57.04
2022-10-06T10:57:17.670Z,57.18
2022-10-06T10:58:17.668Z,54.63
2022-10-06T10:59:17.648Z,51.10
2022-10-06T11:00:17.638Z,50.34
2022-10-06T11:01:17.662Z,47.38
2022-10-06T11:02:17.686Z,46.37
2022-10-06T11:03:17.606Z,48.85
2022-10-06T11:04:17.591Z,48.23
2022-10-06T11:05:17.580Z,46.67
2022-10-06T11:06:17.581Z,46.35
2022-10-06T11:07:17.540Z,45.23
2022-10-06T11:08:17.539Z,45.71
2022-10-06T11:09:17.521Z,45.47
2022-10-06T11:10:17.562Z,45.40
2022-10-06T11:11:17.492Z,43.21
2022-10-06T11:12:17.491Z,43.68
2022-10-06T11:13:17.473Z,43.52
2022-10-06T11:14:17.454Z,42.64
2022-10-06T11:15:17.443Z,44.48
2022-10-06T11:16:17.479Z,44.70
2022-10-06T11:17:17.406Z,45.68
2022-10-06T11:18:21.383Z,45.81
2022-10-06T11:19:17.405Z,45.13
2022-10-06T11:20:17.377Z,44.43
2022-10-06T11:21:17.388Z,40.86
2022-10-06T11:22:17.366Z,42.05
2022-10-06T11:23:17.346Z,44.95
2022-10-06T11:24:17.336Z,43.66
2022-10-06T11:25:17.364Z,43.60
2022-10-06T11:26:17.340Z,42.83
2022-10-06T11:27:17.292Z,42.32
2022-10-06T11:28:17.400Z,42.24
2022-10-06T11:29:17.268Z,43.31
2022-10-06T11:30:17.258Z,46.20
2022-10-06T11:31:22.547Z,48.75
2022-10-06T11:32:18.239Z,47.66
2022-10-06T11:33:17.229Z,48.40
2022-10-06T11:34:17.213Z,48.35
2022-10-06T11:35:17.199Z,49.86
2022-10-06T11:36:17.201Z,51.32
2022-10-06T11:37:17.262Z,53.02
2022-10-06T11:38:17.179Z,55.74
2022-10-06T11:39:17.140Z,55.16
2022-10-06T11:40:17.143Z,54.79
2022-10-06T11:41:17.143Z,54.81
2022-10-06T11:42:17.146Z,54.46
2022-10-06T11:43:17.111Z,52.26
2022-10-06T11:44:17.084Z,48.30
2022-10-06T11:45:17.075Z,47.22
2022-10-06T11:46:17.147Z,45.86
2022-10-06T11:47:17.044Z,44.18
2022-10-06T11:48:17.024Z,45.51
2022-10-06T11:49:17.021Z,46.51
2022-10-06T11:50:17.016Z,43.23
2022-10-06T11:51:17.006Z,42.36
2022-10-06T11:52:16.996Z,41.61
2022-10-06T11:53:16.967Z,40.27
2022-10-06T11:54:16.975Z,39.37
2022-10-06T11:55:16.967Z,39.37
2022-10-06T11:56:16.969Z,40.86
2022-10-06T11:57:16.936Z,41.22
2022-10-06T11:58:40.739Z,39.86
2022-10-06T11:59:17.898Z,38.05
2022-10-06T12:00:16.909Z,39.60
2022-10-06T12:01:16.889Z,36.83
2022-10-06T12:02:16.942Z,36.54
2022-10-06T12:03:16.952Z,37.58
2022-10-06T12:04:19.566Z,36.21
2022-10-06T12:05:54.076Z,36.79
2022-10-06T12:06:17.821Z,37.79
2022-10-06T12:07:16.802Z,38.01
2022-10-06T12:08:16.817Z,38.60
2022-10-06T12:09:16.792Z,39.58
2022-10-06T12:10:16.784Z,39.17
2022-10-06T12:11:16.780Z,41.20
2022-10-06T12:12:16.753Z,42.19
2022-10-06T12:13:51.327Z,44.54
2022-10-06T12:17:19.671Z,46.12
2022-10-06T12:17:26.823Z,47.44
2022-10-06T12:18:16.676Z,43.45
2022-10-06T12:19:16.659Z,43.82
2022-10-06T12:20:16.666Z,43.52
2022-10-06T12:21:16.659Z,41.99
2022-10-06T12:22:16.627Z,41.51
2022-10-06T12:23:16.665Z,42.05
2022-10-06T12:24:16.611Z,40.61
2022-10-06T12:25:16.702Z,40.25
2022-10-06T12:26:16.677Z,40.41
2022-10-06T12:27:17.489Z,37.05
2022-10-06T12:28:16.633Z,37.65
2022-10-06T12:29:17.620Z,37.85
2022-10-06T12:30:17.560Z,37.77
2022-10-06T12:31:18.492Z,38.76
2022-10-06T12:32:16.516Z,37.95
2022-10-06T12:33:16.487Z,38.74
2022-10-06T12:34:16.513Z,38.05
2022-10-06T12:35:16.492Z,37.48
2022-10-06T12:36:16.475Z,38.76
2022-10-06T12:37:16.432Z,38.84
2022-10-06T12:38:16.435Z,37.67
2022-10-06T12:39:16.424Z,37.36
2022-10-06T12:40:16.415Z,38.44
2022-10-06T12:41:16.416Z,38.74
2022-10-06T12:42:16.387Z,40.01
2022-10-06T12:43:16.372Z,38.82
2022-10-06T12:44:16.388Z,38.70
2022-10-06T12:45:16.345Z,39.09
2022-10-06T12:46:16.482Z,38.73
2022-10-06T12:47:16.315Z,40.19
2022-10-06T12:48:16.307Z,41.33
2022-10-06T12:49:16.296Z,42.78
2022-10-06T12:50:16.307Z,43.42
2022-10-06T12:51:16.285Z,44.25
2022-10-06T12:52:16.267Z,43.93
2022-10-06T12:53:16.259Z,46.00
2022-10-06T12:54:16.275Z,42.90
2022-10-06T12:55:16.250Z,43.54
2022-10-06T12:56:16.220Z,42.96
2022-10-06T12:57:16.219Z,42.31
2022-10-06T12:58:16.200Z,43.60
2022-10-06T12:59:16.208Z,45.03
2022-10-06T13:00:16.238Z,47.42
2022-10-06T13:01:16.215Z,46.88
2022-10-06T13:02:16.159Z,45.76
2022-10-06T13:03:16.143Z,46.44
2022-10-06T13:04:16.144Z,44.55
2022-10-06T13:05:16.134Z,44.31
2022-10-06T13:06:16.113Z,43.00
2022-10-06T13:07:16.083Z,43.35
2022-10-06T13:08:16.065Z,42.22
2022-10-06T13:09:16.076Z,42.64
2022-10-06T13:10:16.066Z,42.08
2022-10-06T13:11:16.047Z,40.48
2022-10-06T13:12:16.047Z,40.34
2022-10-06T13:13:16.025Z,41.93
2022-10-06T13:14:16.016Z,42.23
2022-10-06T13:15:16.225Z,44.97
2022-10-06T13:16:16.077Z,46.73
2022-10-06T13:17:16.053Z,46.14
2022-10-06T13:18:15.958Z,45.52
2022-10-06T13:19:15.928Z,46.39
2022-10-06T13:20:15.920Z,43.62
2022-10-06T13:21:15.939Z,43.79
2022-10-06T13:22:37.950Z,44.68
2022-10-06T13:23:15.905Z,43.22
2022-10-06T13:24:15.890Z,45.03
2022-10-06T13:25:15.959Z,45.34